createdAt,value
2018-06-03T00:02:24.328Z,16.18
2018-06-03T00:04:51.915Z,16.30
2018-06-03T00:07:19.532Z,16.26
2018-06-03T00:09:47.154Z,16.17
2018-06-03T00:12:14.732Z,16.08
2018-06-03T00:14:42.315Z,16.07
2018-06-03T00:17:09.932Z,16.09
2018-06-03T00:19:37.507Z,16.10
2018-06-03T00:22:06.019Z,16.11
2018-06-03T00:24:33.643Z,16.07
2018-06-03T00:27:01.385Z,16.05
2018-06-03T00:29:29.086Z,16.07
2018-06-03T00:31:56.793Z,16.00
2018-06-03T00:34:24.487Z,16.04
2018-06-03T00:36:52.126Z,16.03
2018-06-03T00:39:19.823Z,16.03
2018-06-03T00:41:47.507Z,16.11
2018-06-03T00:44:15.167Z,15.97
2018-06-03T00:46:42.868Z,15.98
2018-06-03T00:49:10.577Z,15.97
2018-06-03T00:51:38.259Z,15.92
2018-06-03T00:54:05.963Z,15.90
2018-06-03T00:56:39.227Z,15.87
2018-06-03T00:59:06.859Z,15.90
2018-06-03T01:01:34.532Z,15.88
2018-06-03T01:04:02.219Z,15.89
2018-06-03T01:06:29.944Z,15.89
2018-06-03T01:08:57.627Z,15.85
2018-06-03T01:11:25.405Z,15.87
2018-06-03T01:13:53.064Z,15.83
2018-06-03T01:16:20.737Z,15.83
2018-06-03T01:18:48.481Z,15.77
2018-06-03T01:21:16.168Z,15.82
2018-06-03T01:23:43.886Z,15.77
2018-06-03T01:26:11.588Z,15.71
2018-06-03T01:28:39.358Z,15.64
2018-06-03T01:31:07.227Z,15.69
2018-06-03T01:33:34.934Z,15.65
2018-06-03T01:36:02.590Z,15.61
2018-06-03T01:38:30.324Z,15.59
2018-06-03T01:40:58.018Z,15.61
2018-06-03T01:43:25.714Z,15.71
2018-06-03T01:45:53.424Z,15.85
2018-06-03T01:48:21.107Z,15.81
2018-06-03T01:50:48.768Z,15.58
2018-06-03T01:53:16.443Z,15.43
2018-06-03T01:55:44.162Z,15.50
2018-06-03T01:58:11.837Z,15.34
2018-06-03T02:00:39.743Z,15.25
2018-06-03T02:03:07.440Z,15.45
2018-06-03T02:05:35.098Z,15.60
2018-06-03T02:08:02.792Z,15.57
2018-06-03T02:10:30.475Z,15.50
2018-06-03T02:12:58.183Z,15.44
2018-06-03T02:15:25.886Z,15.31
2018-06-03T02:17:53.601Z,15.23
2018-06-03T02:20:21.376Z,15.14
2018-06-03T02:22:49.055Z,15.07
2018-06-03T02:25:16.833Z,14.91
2018-06-03T02:27:44.528Z,14.83
2018-06-03T02:30:12.228Z,14.72
2018-06-03T02:32:39.947Z,14.87
2018-06-03T02:35:07.607Z,14.90
2018-06-03T02:37:35.326Z,14.82
2018-06-03T02:40:03.091Z,14.78
2018-06-03T02:42:30.758Z,14.74
2018-06-03T02:44:58.466Z,14.82
2018-06-03T02:47:26.172Z,14.81
2018-06-03T02:49:53.867Z,14.98
2018-06-03T02:52:21.528Z,14.74
2018-06-03T02:54:49.263Z,14.67
2018-06-03T02:57:16.956Z,14.94
2018-06-03T02:59:44.680Z,14.87
2018-06-03T03:02:12.335Z,14.86
2018-06-03T03:04:40.011Z,14.77
2018-06-03T03:07:07.732Z,14.69
2018-06-03T03:09:35.392Z,14.68
2018-06-03T03:12:03.144Z,14.48
2018-06-03T03:14:30.793Z,14.46
2018-06-03T03:16:58.476Z,14.55
2018-06-03T03:19:26.140Z,14.45
2018-06-03T03:21:53.823Z,14.60
2018-06-03T03:24:21.492Z,14.77
2018-06-03T03:26:49.171Z,14.70
2018-06-03T03:29:16.839Z,14.61
2018-06-03T03:31:44.517Z,14.62
2018-06-03T03:34:12.225Z,14.67
2018-06-03T03:36:39.947Z,14.79
2018-06-03T03:39:07.602Z,14.58
2018-06-03T03:41:35.271Z,14.58
2018-06-03T03:44:02.982Z,14.55
2018-06-03T03:46:30.663Z,14.68
2018-06-03T03:48:58.339Z,14.68
2018-06-03T03:51:26.011Z,14.72
2018-06-03T03:53:53.692Z,14.76
2018-06-03T03:56:21.346Z,14.77
2018-06-03T03:58:49.015Z,14.78
2018-06-03T04:01:16.702Z,14.74
2018-06-03T04:03:44.410Z,14.77
2018-06-03T04:06:12.077Z,14.82
2018-06-03T04:08:39.845Z,14.89
2018-06-03T04:11:07.508Z,15.00
2018-06-03T04:13:35.418Z,15.10
2018-06-03T04:16:03.091Z,15.23
2018-06-03T04:18:30.758Z,15.59
2018-06-03T04:20:58.418Z,15.69
2018-06-03T04:23:26.083Z,15.74
2018-06-03T04:25:53.787Z,15.76
2018-06-03T04:28:21.518Z,15.81
2018-06-03T04:30:49.235Z,15.92
2018-06-03T04:33:16.994Z,15.88
2018-06-03T04:35:44.630Z,15.70
2018-06-03T04:38:12.307Z,15.73
2018-06-03T04:40:39.950Z,15.82
2018-06-03T04:43:07.590Z,15.80
2018-06-03T04:45:35.256Z,15.77
2018-06-03T04:48:02.913Z,15.93
2018-06-03T04:50:30.603Z,16.03
2018-06-03T04:52:58.355Z,16.30
2018-06-03T04:55:26.055Z,16.57
2018-06-03T04:57:53.798Z,16.73
2018-06-03T05:00:21.472Z,16.96
2018-06-03T05:02:49.366Z,17.26
2018-06-03T05:05:17.014Z,17.57
2018-06-03T05:07:44.707Z,17.78
2018-06-03T05:10:12.402Z,17.88
2018-06-03T05:12:40.138Z,18.06
2018-06-03T05:15:07.802Z,18.25
2018-06-03T05:17:35.477Z,18.42
2018-06-03T05:20:03.207Z,18.55
2018-06-03T05:22:30.862Z,18.56
2018-06-03T05:24:58.522Z,18.49
2018-06-03T05:27:26.299Z,18.54
2018-06-03T05:29:53.960Z,18.78
2018-06-03T05:32:21.620Z,18.89
2018-06-03T05:34:49.285Z,19.06
2018-06-03T05:37:16.975Z,19.09
2018-06-03T05:39:44.639Z,19.43
2018-06-03T05:42:12.319Z,19.58
2018-06-03T05:44:40.011Z,19.75
2018-06-03T05:47:07.663Z,19.83
2018-06-03T05:49:35.384Z,20.11
2018-06-03T05:52:03.136Z,20.18
2018-06-03T05:54:30.808Z,20.34
2018-06-03T05:56:58.474Z,20.36
2018-06-03T05:59:26.186Z,20.56
2018-06-03T06:01:53.855Z,20.77
2018-06-03T06:04:21.544Z,21.04
2018-06-03T06:06:49.263Z,21.24
2018-06-03T06:09:16.947Z,21.30
2018-06-03T06:11:44.634Z,21.43
2018-06-03T06:14:12.307Z,21.52
2018-06-03T06:16:39.954Z,21.75
2018-06-03T06:19:07.647Z,21.88
2018-06-03T06:21:35.342Z,21.97
2018-06-03T06:24:03.045Z,21.94
2018-06-03T06:26:30.820Z,22.14
2018-06-03T06:28:58.509Z,22.24
2018-06-03T06:31:26.279Z,22.41
2018-06-03T06:33:54.255Z,22.56
2018-06-03T06:36:21.950Z,22.60
2018-06-03T06:38:49.699Z,22.52
2018-06-03T06:41:17.761Z,22.88
2018-06-03T06:43:45.785Z,23.15
2018-06-03T06:46:13.526Z,23.39
2018-06-03T06:48:41.215Z,23.61
2018-06-03T06:51:08.879Z,23.81
2018-06-03T06:53:36.878Z,24.03
2018-06-03T06:56:04.591Z,24.14
2018-06-03T06:58:32.260Z,24.47
2018-06-03T07:00:59.919Z,24.71
2018-06-03T07:03:27.621Z,25.09
2018-06-03T07:05:55.598Z,25.71
2018-06-03T07:08:23.275Z,25.76
2018-06-03T07:10:50.922Z,25.66
2018-06-03T07:13:18.874Z,26.10
2018-06-03T07:15:46.571Z,26.17
2018-06-03T07:18:14.232Z,26.05
2018-06-03T07:20:41.943Z,26.30
2018-06-03T07:23:09.627Z,26.55
2018-06-03T07:25:37.319Z,26.92
2018-06-03T07:28:05.029Z,27.18
2018-06-03T07:30:32.701Z,27.62
2018-06-03T07:33:00.614Z,27.53
2018-06-03T07:35:28.267Z,27.40
2018-06-03T07:37:55.984Z,27.56
2018-06-03T07:40:23.684Z,27.91
2018-06-03T07:42:51.656Z,28.09
2018-06-03T07:45:19.355Z,28.24
2018-06-03T07:47:47.080Z,28.34
2018-06-03T07:50:14.821Z,28.56
2018-06-03T07:52:42.576Z,28.72
2018-06-03T07:55:10.294Z,28.75
2018-06-03T07:57:38.016Z,28.96
2018-06-03T08:00:05.755Z,29.51
2018-06-03T08:02:33.515Z,29.32
2018-06-03T08:05:01.183Z,29.68
2018-06-03T08:07:29.130Z,29.87
2018-06-03T08:09:56.815Z,29.88
2018-06-03T08:12:24.519Z,30.32
2018-06-03T08:14:52.252Z,30.53
2018-06-03T08:17:20.028Z,30.38
2018-06-03T08:19:47.727Z,30.87
2018-06-03T08:22:15.459Z,30.67
2018-06-03T08:24:43.142Z,30.62
2018-06-03T08:27:10.867Z,31.16
2018-06-03T08:29:38.554Z,31.18
2018-06-03T08:32:06.259Z,30.73
2018-06-03T08:34:33.995Z,30.26
2018-06-03T08:37:01.690Z,30.10
2018-06-03T08:39:29.406Z,30.75
2018-06-03T08:41:57.070Z,31.44
2018-06-03T08:44:24.795Z,30.50
2018-06-03T08:46:52.633Z,29.32
2018-06-03T08:49:20.408Z,29.70
2018-06-03T08:51:48.137Z,30.20
2018-06-03T08:54:15.892Z,30.35
2018-06-03T08:56:43.614Z,30.98
2018-06-03T08:59:11.319Z,31.53
2018-06-03T09:01:39.000Z,31.01
2018-06-03T09:04:06.699Z,29.87
2018-06-03T09:06:34.416Z,29.54
2018-06-03T09:09:02.204Z,29.77
2018-06-03T09:11:29.937Z,30.52
2018-06-03T09:13:57.724Z,30.00
2018-06-03T09:16:25.463Z,29.69
2018-06-03T09:18:53.246Z,28.84
2018-06-03T09:21:20.951Z,28.15
2018-06-03T09:23:48.648Z,28.65
2018-06-03T09:26:16.365Z,29.51
2018-06-03T09:28:44.064Z,30.20
2018-06-03T09:31:11.796Z,30.59
2018-06-03T09:33:39.532Z,30.81
2018-06-03T09:36:07.266Z,31.19
2018-06-03T09:38:34.975Z,31.18
2018-06-03T09:41:02.661Z,31.47
2018-06-03T09:43:30.396Z,31.40
2018-06-03T09:45:58.112Z,30.37
2018-06-03T09:48:25.831Z,29.70
2018-06-03T09:50:53.588Z,29.91
2018-06-03T09:53:21.361Z,30.24
2018-06-03T09:55:49.044Z,30.17
2018-06-03T09:58:16.779Z,30.35
2018-06-03T10:00:44.489Z,30.00
2018-06-03T10:03:12.199Z,30.45
2018-06-03T10:05:40.103Z,30.75
2018-06-03T10:08:07.773Z,31.21
2018-06-03T10:10:35.491Z,31.12
2018-06-03T10:13:03.202Z,30.36
2018-06-03T10:15:30.929Z,29.64
2018-06-03T10:17:58.658Z,28.82
2018-06-03T10:20:26.402Z,28.65
2018-06-03T10:22:54.104Z,28.97
2018-06-03T10:25:21.797Z,29.55
2018-06-03T10:27:49.497Z,30.41
2018-06-03T10:30:17.260Z,31.01
2018-06-03T10:32:45.067Z,31.67
2018-06-03T10:35:13.752Z,32.15
2018-06-03T10:37:41.485Z,31.96
2018-06-03T10:40:09.195Z,32.20
2018-06-03T10:42:36.936Z,32.41
2018-06-03T10:45:04.743Z,31.72
2018-06-03T10:47:32.464Z,31.36
2018-06-03T10:50:00.151Z,30.37
2018-06-03T10:52:27.867Z,30.33
2018-06-03T10:54:55.594Z,30.49
2018-06-03T10:57:23.263Z,29.71
2018-06-03T10:59:51.044Z,29.24
2018-06-03T11:02:18.859Z,29.45
2018-06-03T11:04:46.541Z,29.90
2018-06-03T11:07:14.234Z,29.99
2018-06-03T11:09:41.919Z,30.03
2018-06-03T11:12:09.694Z,29.88
2018-06-03T11:14:37.346Z,29.51
2018-06-03T11:17:05.084Z,28.98
2018-06-03T11:19:32.801Z,28.42
2018-06-03T11:22:00.604Z,28.75
2018-06-03T11:24:28.303Z,29.08
2018-06-03T11:26:56.003Z,29.02
2018-06-03T11:29:23.772Z,29.26
2018-06-03T11:31:51.524Z,29.02
2018-06-03T11:34:19.191Z,28.99
2018-06-03T11:36:46.968Z,28.90
2018-06-03T11:39:14.711Z,28.83
2018-06-03T11:41:42.387Z,28.81
2018-06-03T11:44:10.158Z,28.84
2018-06-03T11:46:37.839Z,28.91
2018-06-03T11:49:05.536Z,28.84
2018-06-03T11:51:33.238Z,28.87
2018-06-03T11:54:00.929Z,28.94
2018-06-03T11:56:34.288Z,28.87
2018-06-03T11:59:07.576Z,28.60
2018-06-03T12:01:35.299Z,28.38
2018-06-03T12:04:03.003Z,28.24
2018-06-03T12:06:30.719Z,28.31
2018-06-03T12:08:58.446Z,27.97
2018-06-03T12:11:26.150Z,27.96
2018-06-03T12:13:53.847Z,27.92
2018-06-03T12:16:21.679Z,27.83
2018-06-03T12:18:49.380Z,27.55
2018-06-03T12:21:17.092Z,27.56
2018-06-03T12:23:44.788Z,27.32
2018-06-03T12:26:12.470Z,27.51
2018-06-03T12:28:40.200Z,27.69
2018-06-03T12:31:07.854Z,27.47
2018-06-03T12:33:35.539Z,27.24
2018-06-03T12:36:03.304Z,27.16
2018-06-03T12:38:30.915Z,27.34
2018-06-03T12:40:58.631Z,27.67
2018-06-03T12:43:26.397Z,27.27
2018-06-03T12:45:54.180Z,27.40
2018-06-03T12:48:21.888Z,27.65
2018-06-03T12:50:49.599Z,27.87
2018-06-03T12:53:17.394Z,28.01
2018-06-03T12:55:45.114Z,27.77
2018-06-03T12:58:12.783Z,27.58
2018-06-03T13:00:40.499Z,27.37
2018-06-03T13:03:08.227Z,27.50
2018-06-03T13:05:35.990Z,27.61
2018-06-03T13:08:03.767Z,27.08
2018-06-03T13:10:31.493Z,26.76
2018-06-03T13:13:02.727Z,26.94
2018-06-03T13:15:30.453Z,26.86
2018-06-03T13:17:58.139Z,26.98
2018-06-03T13:20:25.982Z,26.99
2018-06-03T13:22:53.683Z,26.94
2018-06-03T13:25:21.409Z,27.21
2018-06-03T13:27:49.119Z,26.87
2018-06-03T13:30:16.824Z,26.93
2018-06-03T13:32:44.543Z,26.65
2018-06-03T13:35:12.260Z,26.56
2018-06-03T13:37:40.734Z,26.62
2018-06-03T13:40:08.457Z,26.85
2018-06-03T13:42:36.187Z,26.89
2018-06-03T13:45:03.907Z,26.98
2018-06-03T13:47:31.610Z,27.08
2018-06-03T13:49:59.294Z,26.86
2018-06-03T13:52:26.979Z,26.86
2018-06-03T13:54:54.732Z,26.43
2018-06-03T13:57:22.488Z,26.61
2018-06-03T13:59:50.226Z,26.62
2018-06-03T14:02:17.911Z,26.95
2018-06-03T14:04:45.583Z,27.08
2018-06-03T14:07:13.275Z,27.13
2018-06-03T14:09:40.965Z,26.88
2018-06-03T14:12:08.696Z,26.85
2018-06-03T14:14:36.419Z,26.91
2018-06-03T14:17:04.151Z,26.81
2018-06-03T14:19:31.925Z,26.37
2018-06-03T14:21:59.508Z,26.15
2018-06-03T14:24:27.148Z,26.12
2018-06-03T14:26:54.811Z,26.08
2018-06-03T14:29:22.492Z,26.20
2018-06-03T14:31:50.234Z,26.30
2018-06-03T14:34:17.895Z,26.26
2018-06-03T14:36:45.610Z,26.42
2018-06-03T14:39:13.290Z,26.45
2018-06-03T14:41:40.952Z,26.38
2018-06-03T14:44:08.652Z,26.45
2018-06-03T14:46:36.323Z,26.08
2018-06-03T14:49:04.035Z,26.11
2018-06-03T14:51:31.662Z,26.00
2018-06-03T14:53:59.407Z,25.96
2018-06-03T14:56:27.092Z,25.98
2018-06-03T14:58:54.754Z,25.94
2018-06-03T15:01:22.449Z,25.88
2018-06-03T15:03:50.169Z,25.87
2018-06-03T15:06:17.912Z,25.95
2018-06-03T15:08:45.581Z,25.96
2018-06-03T15:11:13.304Z,25.99
2018-06-03T15:13:40.994Z,25.90
2018-06-03T15:16:08.642Z,25.97
2018-06-03T15:18:36.339Z,26.06
2018-06-03T15:21:04.081Z,26.10
2018-06-03T15:23:31.873Z,26.05
2018-06-03T15:25:59.568Z,26.15
2018-06-03T15:28:27.249Z,26.02
2018-06-03T15:30:55.004Z,26.11
2018-06-03T15:33:22.702Z,26.15
2018-06-03T15:35:50.455Z,26.09
2018-06-03T15:38:18.145Z,26.03
2018-06-03T15:40:45.921Z,25.89
2018-06-03T15:43:13.626Z,25.79
2018-06-03T15:45:41.289Z,25.60
2018-06-03T15:48:08.942Z,25.54
2018-06-03T15:50:36.651Z,25.52
2018-06-03T15:53:04.291Z,25.60
2018-06-03T15:55:31.997Z,25.42
2018-06-03T15:57:59.688Z,25.54
2018-06-03T16:00:27.354Z,25.54
2018-06-03T16:02:55.119Z,25.39
2018-06-03T16:05:22.802Z,25.38
2018-06-03T16:07:50.509Z,25.26
2018-06-03T16:10:18.190Z,25.10
2018-06-03T16:12:45.891Z,25.19
2018-06-03T16:15:13.554Z,25.33
2018-06-03T16:17:41.188Z,25.22
2018-06-03T16:20:09.071Z,25.17
2018-06-03T16:22:36.825Z,25.07
2018-06-03T16:25:04.478Z,25.17
2018-06-03T16:27:32.119Z,25.27
2018-06-03T16:29:59.822Z,25.26
2018-06-03T16:32:27.452Z,25.21
2018-06-03T16:34:55.163Z,25.27
2018-06-03T16:37:22.890Z,25.13
2018-06-03T16:39:50.663Z,25.05
2018-06-03T16:42:18.523Z,25.03
2018-06-03T16:44:46.264Z,25.04
2018-06-03T16:47:13.904Z,25.02
2018-06-03T16:49:41.637Z,24.93
2018-06-03T16:52:09.297Z,24.91
2018-06-03T16:54:37.079Z,24.97
2018-06-03T16:57:04.755Z,24.87
2018-06-03T16:59:32.643Z,24.91
2018-06-03T17:02:00.431Z,24.83
2018-06-03T17:04:28.135Z,24.68
2018-06-03T17:06:55.974Z,24.53
2018-06-03T17:09:23.646Z,24.63
2018-06-03T17:11:51.389Z,24.48
2018-06-03T17:14:19.076Z,24.31
2018-06-03T17:16:46.743Z,24.20
2018-06-03T17:19:14.458Z,24.21
2018-06-03T17:21:42.150Z,24.30
2018-06-03T17:24:09.832Z,24.36
2018-06-03T17:26:37.503Z,24.41
2018-06-03T17:29:05.173Z,24.40
2018-06-03T17:31:32.846Z,24.39
2018-06-03T17:34:00.498Z,24.45
2018-06-03T17:36:28.160Z,24.31
2018-06-03T17:38:55.813Z,24.30
2018-06-03T17:41:23.488Z,24.39
2018-06-03T17:43:51.183Z,24.29
2018-06-03T17:46:18.878Z,24.27
2018-06-03T17:48:46.535Z,24.20
2018-06-03T17:51:14.179Z,24.18
2018-06-03T17:53:42.086Z,24.11
2018-06-03T17:56:09.801Z,24.08
2018-06-03T17:58:37.517Z,24.05
2018-06-03T18:01:05.232Z,24.02
2018-06-03T18:03:32.918Z,23.96
2018-06-03T18:06:00.564Z,24.10
2018-06-03T18:08:28.249Z,23.93
2018-06-03T18:10:55.923Z,23.79
2018-06-03T18:13:23.718Z,23.80
2018-06-03T18:15:51.441Z,23.69
2018-06-03T18:18:19.140Z,23.67
2018-06-03T18:20:46.871Z,23.53
2018-06-03T18:23:14.536Z,23.52
2018-06-03T18:25:42.198Z,23.49
2018-06-03T18:28:09.843Z,23.46
2018-06-03T18:30:37.549Z,23.40
2018-06-03T18:33:05.230Z,23.30
2018-06-03T18:35:32.883Z,23.31
2018-06-03T18:38:00.659Z,23.41
2018-06-03T18:40:28.343Z,23.35
2018-06-03T18:42:56.051Z,23.30
2018-06-03T18:45:23.935Z,23.20
2018-06-03T18:47:51.598Z,23.27
2018-06-03T18:50:19.271Z,23.18
2018-06-03T18:52:46.988Z,22.99
2018-06-03T18:55:14.664Z,22.82
2018-06-03T18:57:42.369Z,22.85
2018-06-03T19:00:10.063Z,22.85
2018-06-03T19:02:37.701Z,22.62
2018-06-03T19:05:05.542Z,22.62
2018-06-03T19:07:33.226Z,22.60
2018-06-03T19:10:00.888Z,22.60
2018-06-03T19:12:28.674Z,22.46
2018-06-03T19:14:56.330Z,22.42
2018-06-03T19:17:24.031Z,22.48
2018-06-03T19:19:51.695Z,22.51
2018-06-03T19:22:19.379Z,22.54
2018-06-03T19:24:47.033Z,22.53
2018-06-03T19:27:14.748Z,22.39
2018-06-03T19:29:42.386Z,22.36
2018-06-03T19:32:10.078Z,22.26
2018-06-03T19:34:37.707Z,22.17
2018-06-03T19:37:05.365Z,22.28
2018-06-03T19:39:33.056Z,22.34
2018-06-03T19:42:00.705Z,22.12
2018-06-03T19:44:28.400Z,22.08
2018-06-03T19:46:56.069Z,22.12
2018-06-03T19:49:23.752Z,22.31
2018-06-03T19:51:51.460Z,22.15
2018-06-03T19:54:19.090Z,21.90
2018-06-03T19:56:46.768Z,21.69
2018-06-03T19:59:14.389Z,21.57
2018-06-03T20:01:42.066Z,21.52
2018-06-03T20:04:09.897Z,21.52
2018-06-03T20:06:37.591Z,21.44
2018-06-03T20:09:06.798Z,21.41
2018-06-03T20:11:34.520Z,21.37
2018-06-03T20:14:02.188Z,21.30
2018-06-03T20:16:30.291Z,21.35
2018-06-03T20:18:58.108Z,21.26
2018-06-03T20:21:25.824Z,21.25
2018-06-03T20:23:53.547Z,21.19
2018-06-03T20:26:21.215Z,21.22
2018-06-03T20:28:48.880Z,21.38
2018-06-03T20:31:16.563Z,21.39
2018-06-03T20:33:44.260Z,21.37
2018-06-03T20:36:11.983Z,21.19
2018-06-03T20:38:39.635Z,20.84
2018-06-03T20:41:07.308Z,20.73
2018-06-03T20:43:34.935Z,20.88
2018-06-03T20:46:02.587Z,20.75
2018-06-03T20:48:30.231Z,20.38
2018-06-03T20:50:57.887Z,20.41
2018-06-03T20:53:25.523Z,20.37
2018-06-03T20:55:53.174Z,20.49
2018-06-03T20:58:20.790Z,20.48
2018-06-03T21:00:48.485Z,20.35
2018-06-03T21:03:16.127Z,20.26
2018-06-03T21:05:43.763Z,20.28
2018-06-03T21:08:11.406Z,20.22
2018-06-03T21:10:39.027Z,20.15
2018-06-03T21:13:06.647Z,20.14
2018-06-03T21:15:34.307Z,20.09
2018-06-03T21:18:01.956Z,20.01
2018-06-03T21:20:29.602Z,19.99
2018-06-03T21:22:57.272Z,19.91
2018-06-03T21:25:24.991Z,19.97
2018-06-03T21:27:52.639Z,19.97
2018-06-03T21:30:20.270Z,19.90
2018-06-03T21:32:47.911Z,19.89
2018-06-03T21:35:15.532Z,19.86
2018-06-03T21:37:43.148Z,19.79
2018-06-03T21:40:10.851Z,19.70
2018-06-03T21:42:38.486Z,19.56
2018-06-03T21:45:06.168Z,19.64
2018-06-03T21:47:33.789Z,19.67
2018-06-03T21:50:01.508Z,19.55
2018-06-03T21:52:29.299Z,19.53
2018-06-03T21:54:56.923Z,19.58
2018-06-03T21:57:24.618Z,19.61
2018-06-03T21:59:52.236Z,19.36
2018-06-03T22:02:19.902Z,19.14
2018-06-03T22:04:47.559Z,18.89
2018-06-03T22:07:15.199Z,18.61
2018-06-03T22:09:42.905Z,18.51
2018-06-03T22:12:10.547Z,18.53
2018-06-03T22:14:38.156Z,18.44
2018-06-03T22:17:05.830Z,18.37
2018-06-03T22:19:33.585Z,18.32
2018-06-03T22:22:01.238Z,18.39
2018-06-03T22:24:28.934Z,18.41
2018-06-03T22:26:56.657Z,18.62
2018-06-03T22:29:24.311Z,18.57
2018-06-03T22:31:51.979Z,18.61
2018-06-03T22:34:19.631Z,18.53
2018-06-03T22:36:47.242Z,18.41
2018-06-03T22:39:14.888Z,18.38
2018-06-03T22:41:42.557Z,18.42
2018-06-03T22:44:10.231Z,18.42
2018-06-03T22:46:37.915Z,18.20
2018-06-03T22:49:05.731Z,18.09
2018-06-03T22:51:33.393Z,18.06
2018-06-03T22:54:01.042Z,17.97
2018-06-03T22:56:34.321Z,18.05
2018-06-03T22:59:01.993Z,18.00
2018-06-03T23:01:29.692Z,17.88
2018-06-03T23:03:57.354Z,17.82
2018-06-03T23:06:25.075Z,17.62
2018-06-03T23:08:52.763Z,17.58
2018-06-03T23:11:20.471Z,17.55
2018-06-03T23:13:48.172Z,17.64
2018-06-03T23:16:15.890Z,17.57
2018-06-03T23:18:43.532Z,17.51
2018-06-03T23:21:11.198Z,17.68
2018-06-03T23:23:38.858Z,17.45
2018-06-03T23:26:06.554Z,17.35
2018-06-03T23:28:34.263Z,17.44
2018-06-03T23:31:01.976Z,17.56
2018-06-03T23:33:29.659Z,17.48
2018-06-03T23:35:57.329Z,17.49
2018-06-03T23:38:25.074Z,17.52
2018-06-03T23:40:52.793Z,17.43
2018-06-03T23:43:20.458Z,17.46
2018-06-03T23:45:48.184Z,17.51
2018-06-03T23:48:15.895Z,17.50
2018-06-03T23:50:43.552Z,17.47
2018-06-03T23:53:11.264Z,17.47
2018-06-03T23:55:38.916Z,17.37
2018-06-03T23:58:06.599Z,17.28
